createdAt,value
2023-10-04T00:00:16.758Z,77.98
2023-10-04T00:02:52.975Z,77.55
2023-10-04T00:05:24.558Z,77.30
2023-10-04T00:07:52.862Z,76.76
2023-10-04T00:10:20.300Z,76.88
2023-10-04T00:12:47.435Z,77.00
2023-10-04T00:15:14.665Z,76.85
2023-10-04T00:17:43.564Z,76.83
2023-10-04T00:20:11.516Z,77.10
2023-10-04T00:22:40.755Z,76.79
2023-10-04T00:25:12.380Z,76.39
2023-10-04T00:27:42.371Z,76.10
2023-10-04T00:30:13.185Z,76.04
2023-10-04T00:32:40.125Z,76.39
2023-10-04T00:35:13.451Z,76.39
2023-10-04T00:37:47.001Z,76.38
2023-10-04T00:40:19.593Z,76.57
2023-10-04T00:42:49.172Z,76.73
2023-10-04T00:45:16.919Z,76.16
2023-10-04T00:47:48.553Z,76.35
2023-10-04T00:50:16.690Z,76.64
2023-10-04T00:52:58.306Z,77.07
2023-10-04T00:55:25.216Z,77.27
2023-10-04T00:57:57.903Z,77.31
2023-10-04T01:00:25.797Z,76.93
2023-10-04T01:02:53.793Z,76.96
2023-10-04T01:05:25.654Z,77.50
2023-10-04T01:07:53.832Z,77.47
2023-10-04T01:10:25.441Z,77.10
2023-10-04T01:12:53.393Z,77.35
2023-10-04T01:15:37.466Z,77.48
2023-10-04T01:18:08.796Z,77.37
2023-10-04T01:20:38.349Z,77.70
2023-10-04T01:23:07.251Z,77.68
2023-10-04T01:25:38.368Z,77.49
2023-10-04T01:28:19.432Z,77.50
2023-10-04T01:30:48.715Z,77.42
2023-10-04T01:33:20.498Z,77.44
2023-10-04T01:35:52.884Z,77.25
2023-10-04T01:38:20.062Z,76.99
2023-10-04T01:40:49.087Z,76.66
2023-10-04T01:43:17.030Z,77.04
2023-10-04T01:45:49.519Z,76.55
2023-10-04T01:48:16.884Z,76.90
2023-10-04T01:50:44.132Z,76.73
2023-10-04T01:53:11.297Z,76.31
2023-10-04T01:55:38.241Z,76.15
2023-10-04T01:58:05.545Z,76.00
2023-10-04T02:00:32.354Z,76.16
2023-10-04T02:02:59.365Z,76.05
2023-10-04T02:05:41.907Z,75.85
2023-10-04T02:08:13.502Z,75.77
2023-10-04T02:10:45.866Z,75.58
2023-10-04T02:13:16.605Z,75.56
2023-10-04T02:15:48.700Z,74.38
2023-10-04T02:18:16.774Z,74.76
2023-10-04T02:20:46.454Z,74.82
2023-10-04T02:23:13.316Z,74.83
2023-10-04T02:25:40.383Z,74.48
2023-10-04T02:28:19.196Z,74.30
2023-10-04T02:30:49.734Z,74.24
2023-10-04T02:33:18.319Z,73.80
2023-10-04T02:35:48.442Z,73.38
2023-10-04T02:38:27.910Z,73.43
2023-10-04T02:40:55.402Z,73.76
2023-10-04T02:43:24.307Z,73.83
2023-10-04T02:45:53.405Z,74.24
2023-10-04T02:48:21.201Z,74.55
2023-10-04T02:50:48.926Z,74.37
2023-10-04T02:53:26.968Z,74.22
2023-10-04T02:55:59.266Z,74.08
2023-10-04T02:58:33.217Z,74.50
2023-10-04T03:01:01.363Z,74.18
2023-10-04T03:03:28.621Z,74.00
2023-10-04T03:06:01.415Z,73.39
2023-10-04T03:08:28.845Z,73.53
2023-10-04T03:10:56.923Z,73.67
2023-10-04T03:13:27.245Z,73.71
2023-10-04T03:15:59.733Z,73.78
2023-10-04T03:18:27.501Z,73.69
2023-10-04T03:21:03.457Z,74.34
2023-10-04T03:23:43.625Z,75.19
2023-10-04T03:26:16.706Z,76.38
2023-10-04T03:28:47.672Z,75.57
2023-10-04T03:31:16.202Z,75.45
2023-10-04T03:33:47.263Z,75.54
2023-10-04T03:36:18.940Z,75.07
2023-10-04T03:38:50.719Z,75.14
2023-10-04T03:41:20.395Z,75.08
2023-10-04T03:43:56.770Z,74.96
2023-10-04T03:46:24.929Z,74.91
2023-10-04T03:48:56.142Z,74.78
2023-10-04T03:51:23.525Z,75.13
2023-10-04T03:53:54.520Z,75.17
2023-10-04T03:56:23.485Z,74.79
2023-10-04T03:58:51.772Z,74.59
2023-10-04T04:01:20.750Z,74.56
2023-10-04T04:03:50.971Z,74.84
2023-10-04T04:06:18.869Z,74.61
2023-10-04T04:08:50.329Z,74.27
2023-10-04T04:11:20.640Z,74.31
2023-10-04T04:13:47.423Z,74.40
2023-10-04T04:16:18.756Z,74.24
2023-10-04T04:18:49.096Z,74.51
2023-10-04T04:21:19.313Z,74.51
2023-10-04T04:23:55.648Z,74.79
2023-10-04T04:26:26.573Z,74.93
2023-10-04T04:28:53.920Z,75.60
2023-10-04T04:31:22.088Z,75.41
2023-10-04T04:33:50.139Z,74.88
2023-10-04T04:36:30.128Z,74.53
2023-10-04T04:39:07.966Z,74.29
2023-10-04T04:41:42.188Z,74.75
2023-10-04T04:44:10.573Z,74.55
2023-10-04T04:46:41.266Z,74.66
2023-10-04T04:49:08.531Z,75.11
2023-10-04T04:51:36.960Z,75.54
2023-10-04T04:54:04.163Z,75.89
2023-10-04T04:56:32.981Z,76.32
2023-10-04T04:59:09.157Z,76.50
2023-10-04T05:01:40.638Z,76.68
2023-10-04T05:04:08.503Z,76.80
2023-10-04T05:06:35.631Z,76.70
2023-10-04T05:09:02.607Z,76.78
2023-10-04T05:11:33.193Z,77.10
2023-10-04T05:14:04.279Z,77.52
2023-10-04T05:16:33.097Z,77.45
2023-10-04T05:19:12.376Z,77.50
2023-10-04T05:22:29.560Z,77.45
2023-10-04T05:25:02.598Z,77.64
2023-10-04T05:27:46.945Z,77.71
2023-10-04T05:30:17.412Z,77.88
2023-10-04T05:32:49.289Z,77.75
2023-10-04T05:35:26.770Z,77.94
2023-10-04T05:37:55.378Z,78.01
2023-10-04T05:40:31.940Z,77.75
2023-10-04T05:43:24.581Z,77.93
2023-10-04T05:45:56.546Z,78.07
2023-10-04T05:48:46.425Z,77.50
2023-10-04T05:51:18.648Z,77.49
2023-10-04T05:58:43.699Z,77.45
2023-10-04T06:01:21.082Z,77.88
2023-10-04T06:03:50.916Z,78.14
2023-10-04T06:06:18.000Z,78.13
2023-10-04T06:08:46.991Z,78.18
2023-10-04T06:11:13.740Z,78.40
2023-10-04T06:13:40.517Z,78.10
2023-10-04T06:16:09.339Z,78.12
2023-10-04T06:18:36.480Z,78.42
2023-10-04T06:21:07.129Z,78.44
2023-10-04T06:23:34.257Z,78.61
2023-10-04T06:26:01.512Z,77.90
2023-10-04T06:28:30.072Z,78.24
2023-10-04T06:30:57.875Z,78.25
2023-10-04T06:33:26.193Z,78.56
2023-10-04T06:35:53.169Z,78.95
2023-10-04T06:38:22.047Z,79.18
2023-10-04T06:40:49.097Z,79.23
2023-10-04T06:43:16.290Z,79.19
2023-10-04T06:45:43.553Z,79.15
2023-10-04T06:48:12.868Z,79.50
2023-10-04T06:50:40.732Z,79.52
2023-10-04T06:53:10.475Z,79.67
2023-10-04T06:55:38.704Z,79.87
2023-10-04T06:58:06.324Z,80.15
2023-10-04T07:00:38.696Z,80.20
2023-10-04T07:03:06.369Z,79.98
2023-10-04T07:05:36.822Z,80.34
2023-10-04T07:08:06.296Z,80.44
2023-10-04T07:10:33.743Z,80.28
2023-10-04T07:13:03.081Z,80.65
2023-10-04T07:15:32.287Z,80.93
2023-10-04T07:18:01.311Z,81.10
2023-10-04T07:20:28.082Z,81.11
2023-10-04T07:22:59.519Z,81.20
2023-10-04T07:25:28.592Z,81.47
2023-10-04T07:27:56.856Z,81.22
2023-10-04T07:30:27.475Z,81.63
2023-10-04T07:32:57.594Z,81.89
2023-10-04T07:35:26.510Z,81.80
2023-10-04T07:37:58.384Z,81.62
2023-10-04T07:40:28.779Z,81.49
2023-10-04T07:42:55.852Z,81.61
2023-10-04T07:45:29.761Z,81.39
2023-10-04T07:47:59.968Z,81.06
2023-10-04T07:50:27.745Z,81.44
2023-10-04T07:53:03.788Z,81.79
2023-10-04T07:55:30.670Z,81.59
2023-10-04T07:58:06.086Z,82.22
2023-10-04T08:00:36.303Z,82.06
2023-10-04T08:03:04.965Z,81.95
2023-10-04T08:05:34.459Z,81.93
2023-10-04T08:08:05.429Z,82.16
2023-10-04T08:10:34.894Z,82.10
2023-10-04T08:13:02.432Z,82.29
2023-10-04T08:15:31.928Z,82.54
2023-10-04T08:18:00.148Z,82.33
2023-10-04T08:20:30.672Z,82.48
2023-10-04T08:23:03.422Z,82.73
2023-10-04T08:25:30.454Z,82.74
2023-10-04T08:27:58.051Z,83.46
2023-10-04T08:30:26.728Z,83.28
2023-10-04T08:32:54.523Z,83.36
2023-10-04T08:35:26.229Z,83.74
2023-10-04T08:37:57.410Z,83.68
2023-10-04T08:40:26.461Z,83.51
2023-10-04T08:42:53.213Z,84.13
2023-10-04T08:45:21.005Z,84.00
2023-10-04T08:47:52.368Z,83.99
2023-10-04T08:50:32.410Z,83.93
2023-10-04T08:53:04.944Z,83.34
2023-10-04T08:55:38.863Z,83.79
2023-10-04T08:58:05.887Z,83.17
2023-10-04T09:00:36.402Z,82.94
2023-10-04T09:03:05.840Z,82.57
2023-10-04T09:05:34.197Z,82.48
2023-10-04T09:08:05.224Z,82.31
2023-10-04T09:10:35.063Z,82.73
2023-10-04T09:13:05.028Z,82.59
2023-10-04T09:15:32.768Z,82.24
2023-10-04T09:18:04.103Z,82.21
2023-10-04T09:20:33.199Z,82.30
2023-10-04T09:23:03.639Z,82.54
2023-10-04T09:25:41.081Z,81.82
2023-10-04T09:28:12.457Z,81.73
2023-10-04T09:30:47.045Z,81.72
2023-10-04T09:33:25.616Z,81.80
2023-10-04T09:35:53.074Z,82.15
2023-10-04T09:38:22.045Z,81.54
2023-10-04T09:40:56.431Z,79.89
2023-10-04T09:43:40.673Z,79.67
2023-10-04T09:46:13.118Z,79.51
2023-10-04T09:48:46.059Z,79.82
2023-10-04T09:51:15.032Z,80.23
2023-10-04T09:53:42.815Z,80.28
2023-10-04T09:56:14.612Z,79.67
2023-10-04T09:58:54.761Z,78.41
2023-10-04T10:01:24.038Z,78.02
2023-10-04T10:03:56.610Z,78.02
2023-10-04T10:06:24.813Z,78.58
2023-10-04T10:08:59.794Z,77.25
2023-10-04T10:11:26.798Z,77.38
2023-10-04T10:13:55.200Z,77.69
2023-10-04T10:16:23.555Z,78.14
2023-10-04T10:18:50.861Z,78.09
2023-10-04T10:21:17.915Z,77.26
2023-10-04T10:23:59.051Z,76.26
2023-10-04T10:26:25.986Z,77.31
2023-10-04T10:29:05.690Z,76.98
2023-10-04T10:31:35.924Z,77.16
2023-10-04T10:34:13.819Z,76.87
2023-10-04T10:36:48.963Z,76.22
2023-10-04T10:39:22.341Z,75.39
2023-10-04T10:41:52.290Z,75.48
2023-10-04T10:44:28.214Z,75.01
2023-10-04T10:47:18.837Z,73.13
2023-10-04T10:49:56.486Z,72.36
2023-10-04T10:52:40.085Z,72.79
2023-10-04T10:55:15.740Z,73.82
2023-10-04T10:57:46.145Z,73.61
2023-10-04T11:00:19.351Z,73.43
2023-10-04T11:02:52.461Z,73.63
2023-10-04T11:05:21.332Z,74.02
2023-10-04T11:07:49.245Z,73.62
2023-10-04T11:10:17.711Z,73.15
2023-10-04T11:12:46.039Z,72.89
2023-10-04T11:15:13.852Z,71.05
2023-10-04T11:17:41.042Z,71.07
2023-10-04T11:20:11.953Z,71.21
2023-10-04T11:22:42.215Z,70.68
2023-10-04T11:25:10.075Z,70.76
2023-10-04T11:27:38.412Z,70.94
2023-10-04T11:30:06.710Z,70.90
2023-10-04T11:32:33.709Z,71.38
2023-10-04T11:35:09.193Z,70.62
2023-10-04T11:37:51.530Z,66.77
2023-10-04T11:40:20.736Z,68.73
2023-10-04T11:42:49.824Z,68.24
2023-10-04T11:45:27.972Z,68.14
2023-10-04T11:48:02.798Z,67.81
2023-10-04T11:50:49.670Z,67.52
2023-10-04T11:53:43.343Z,67.31
2023-10-04T11:56:10.772Z,68.03
2023-10-04T11:58:48.717Z,67.66
2023-10-04T12:01:21.335Z,68.33
2023-10-04T12:03:48.584Z,68.65
2023-10-04T12:06:16.788Z,69.37
2023-10-04T12:08:43.724Z,68.58
2023-10-04T12:11:23.348Z,67.95
2023-10-04T12:13:58.834Z,67.05
2023-10-04T12:16:26.900Z,67.01
2023-10-04T12:18:54.024Z,65.14
2023-10-04T12:21:21.041Z,66.07
2023-10-04T12:23:47.898Z,66.06
2023-10-04T12:26:18.145Z,66.16
2023-10-04T12:28:44.969Z,65.83
2023-10-04T12:31:11.909Z,65.76
2023-10-04T12:33:39.914Z,65.57
2023-10-04T12:36:07.527Z,65.13
2023-10-04T12:38:41.457Z,63.30
2023-10-04T12:41:30.131Z,62.00
2023-10-04T12:43:56.922Z,63.75
2023-10-04T12:46:23.982Z,64.58
2023-10-04T12:48:51.439Z,64.23
2023-10-04T12:51:18.461Z,63.91
2023-10-04T12:53:50.239Z,63.39
2023-10-04T12:56:17.464Z,62.17
2023-10-04T12:58:46.649Z,62.04
2023-10-04T13:01:13.761Z,60.88
2023-10-04T13:03:41.674Z,61.75
2023-10-04T13:06:14.012Z,61.85
2023-10-04T13:08:41.102Z,62.13
2023-10-04T13:11:09.012Z,62.33
2023-10-04T13:13:35.735Z,62.10
2023-10-04T13:16:04.352Z,62.01
2023-10-04T13:18:31.461Z,61.85
2023-10-04T13:20:59.445Z,62.02
2023-10-04T13:23:27.624Z,62.09
2023-10-04T13:25:55.701Z,62.91
2023-10-04T13:28:24.703Z,62.89
2023-10-04T13:30:54.148Z,63.12
2023-10-04T13:33:22.496Z,63.17
2023-10-04T13:35:52.757Z,63.04
2023-10-04T13:38:20.345Z,63.66
2023-10-04T13:40:53.653Z,63.54
2023-10-04T13:43:23.212Z,61.30
2023-10-04T13:45:51.237Z,63.51
2023-10-04T13:48:20.318Z,64.00
2023-10-04T13:50:48.299Z,64.27
2023-10-04T13:53:18.943Z,62.85
2023-10-04T13:55:47.358Z,63.07
2023-10-04T13:58:19.036Z,62.77
2023-10-04T14:00:56.418Z,62.86
2023-10-04T14:03:24.283Z,62.97
2023-10-04T14:05:54.787Z,63.48
2023-10-04T14:08:21.989Z,63.77
2023-10-04T14:10:50.311Z,63.69
2023-10-04T14:13:17.321Z,62.80
2023-10-04T14:15:44.139Z,62.70
2023-10-04T14:18:12.824Z,62.77
2023-10-04T14:20:39.735Z,62.81
2023-10-04T14:23:11.018Z,62.96
2023-10-04T14:25:39.494Z,63.35
2023-10-04T14:28:07.094Z,63.32
2023-10-04T14:30:33.813Z,63.87
2023-10-04T14:33:00.648Z,63.65
2023-10-04T14:35:28.828Z,63.66
2023-10-04T14:37:57.091Z,63.93
2023-10-04T14:40:26.972Z,63.55
2023-10-04T14:42:58.430Z,63.02
2023-10-04T14:45:26.116Z,62.98
2023-10-04T14:47:53.193Z,62.83
2023-10-04T14:50:20.852Z,62.69
2023-10-04T14:52:49.096Z,62.89
2023-10-04T14:55:18.162Z,62.60
2023-10-04T14:57:45.806Z,63.40
2023-10-04T15:00:17.785Z,62.45
2023-10-04T15:02:48.100Z,63.11
2023-10-04T15:05:15.270Z,63.21
2023-10-04T15:07:42.338Z,63.21
2023-10-04T15:10:18.129Z,64.06
2023-10-04T15:12:46.559Z,64.60
2023-10-04T15:15:13.451Z,65.69
2023-10-04T15:17:40.318Z,65.23
2023-10-04T15:20:08.035Z,65.45
2023-10-04T15:22:40.292Z,66.45
2023-10-04T15:25:14.022Z,67.09
2023-10-04T15:27:46.384Z,67.83
2023-10-04T15:30:20.358Z,66.58
2023-10-04T15:32:49.169Z,67.69
2023-10-04T15:35:16.123Z,68.26
2023-10-04T15:37:42.942Z,68.50
2023-10-04T15:40:14.653Z,68.73
2023-10-04T15:42:43.401Z,69.33
2023-10-04T15:45:11.245Z,69.39
2023-10-04T15:47:41.489Z,69.65
2023-10-04T15:50:12.302Z,69.14
2023-10-04T15:52:40.672Z,69.57
2023-10-04T15:55:08.576Z,69.88
2023-10-04T15:57:35.964Z,69.95
2023-10-04T16:00:06.096Z,70.34
2023-10-04T16:02:35.604Z,70.36
2023-10-04T16:05:18.088Z,70.28
2023-10-04T16:07:47.766Z,70.26
2023-10-04T16:10:20.426Z,69.96
2023-10-04T16:12:52.494Z,69.84
2023-10-04T16:15:32.579Z,69.75
2023-10-04T16:17:59.672Z,69.59
2023-10-04T16:20:33.970Z,69.29
2023-10-04T16:23:21.390Z,69.59
2023-10-04T16:25:48.264Z,69.09
2023-10-04T16:28:17.489Z,69.22
2023-10-04T16:30:44.967Z,69.17
2023-10-04T16:33:12.015Z,69.59
2023-10-04T16:35:39.923Z,69.54
2023-10-04T16:38:07.890Z,69.43
2023-10-04T16:40:35.038Z,69.25
2023-10-04T16:43:03.429Z,69.15
2023-10-04T16:45:30.586Z,69.17
2023-10-04T16:47:57.694Z,69.48
2023-10-04T16:50:31.241Z,69.94
2023-10-04T16:52:58.322Z,70.22
2023-10-04T16:55:27.631Z,70.21
2023-10-04T16:57:54.505Z,70.55
2023-10-04T17:00:23.292Z,70.59
2023-10-04T17:03:41.876Z,70.66
2023-10-04T17:06:01.014Z,70.69
2023-10-04T17:08:28.211Z,70.17
2023-10-04T17:10:55.306Z,71.13
2023-10-04T17:13:24.235Z,71.17
2023-10-04T17:15:55.818Z,70.95
2023-10-04T17:18:25.777Z,71.25
2023-10-04T17:20:53.116Z,71.20
2023-10-04T17:23:19.951Z,71.36
2023-10-04T17:25:46.856Z,72.01
2023-10-04T17:28:16.088Z,71.85
2023-10-04T17:30:43.434Z,71.96
2023-10-04T17:33:13.531Z,71.86
2023-10-04T17:35:40.483Z,72.19
2023-10-04T17:38:07.866Z,72.08
2023-10-04T17:40:35.444Z,72.34
2023-10-04T17:43:04.611Z,72.61
2023-10-04T17:45:37.942Z,73.33
2023-10-04T17:48:06.195Z,73.11
2023-10-04T17:50:39.242Z,73.03
2023-10-04T17:53:06.946Z,73.15
2023-10-04T17:55:37.419Z,73.53
2023-10-04T17:58:09.993Z,73.47
2023-10-04T18:00:46.435Z,73.82
2023-10-04T18:03:34.432Z,73.97
2023-10-04T18:06:01.912Z,73.69
2023-10-04T18:08:32.478Z,73.55
2023-10-04T18:11:04.168Z,73.30
2023-10-04T18:13:36.468Z,73.09
2023-10-04T18:16:03.915Z,72.93
2023-10-04T18:18:32.251Z,72.29
2023-10-04T18:21:02.620Z,72.21
2023-10-04T18:23:29.758Z,72.58
2023-10-04T18:25:58.997Z,73.15
2023-10-04T18:28:26.991Z,73.08
2023-10-04T18:30:54.939Z,73.28
2023-10-04T18:33:23.867Z,73.64
2023-10-04T18:36:19.809Z,74.11
2023-10-04T18:38:51.825Z,73.62
2023-10-04T18:41:21.153Z,74.06
2023-10-04T18:43:48.082Z,73.96
2023-10-04T18:46:16.734Z,73.95
2023-10-04T18:48:43.873Z,74.42
2023-10-04T18:51:10.744Z,74.20
2023-10-04T18:53:38.083Z,74.32
2023-10-04T18:56:06.081Z,74.57
2023-10-04T18:58:33.025Z,74.56
2023-10-04T19:01:00.176Z,74.71
2023-10-04T19:03:27.363Z,74.62
2023-10-04T19:05:54.307Z,74.50
2023-10-04T19:08:21.619Z,74.73
2023-10-04T19:10:48.560Z,74.68
2023-10-04T19:13:15.609Z,74.42
2023-10-04T19:15:42.601Z,74.56
2023-10-04T19:18:10.217Z,74.62
2023-10-04T19:20:37.115Z,74.36
2023-10-04T19:23:04.721Z,74.39
2023-10-04T19:25:32.550Z,74.45
2023-10-04T19:28:00.555Z,74.21
2023-10-04T19:30:35.235Z,74.39
2023-10-04T19:33:04.782Z,74.31
